AEE121 LGTS-LGAV
Flight info
| Callsign | AEE121 |
|---|---|
| Flight time | 0h 44m |
| Altitude | 25000 |
| Route | LEKPO UL617 SKP UM749 ROPOX |
| Aircraft | A320/M-SDE3FGHIRWY/LB1 |
Departure
| Time | 2026-05-05 13:10 |
|---|---|
| Airport | Thessaloniki Macedonia International Airport (LGTS) |
Arrival
| Time | 2026-05-05 13:55 |
|---|---|
| Airport | Athens Eleftherios Venizelos International Airport (LGAV) |
| Time | Latitude | Longitude | Altitude | Speed | Heading |
|---|---|---|---|---|---|
| 2026-05-05 12:54 | 40.52287 | 22.97460 | 15 ft | 0 kts | 224° |
| 2026-05-05 13:05 | 40.52283 | 22.97454 | 16 ft | 4 kts | 225° |
| 2026-05-05 13:06 | 40.52244 | 22.97464 | 15 ft | 7 kts | 156° |
| 2026-05-05 13:06 | 40.52202 | 22.97510 | 15 ft | 9 kts | 135° |
| 2026-05-05 13:06 | 40.52162 | 22.97583 | 15 ft | 11 kts | 118° |
| 2026-05-05 13:06 | 40.52124 | 22.97680 | 16 ft | 13 kts | 134° |
| 2026-05-05 13:07 | 40.52055 | 22.97770 | 16 ft | 15 kts | 136° |
| 2026-05-05 13:07 | 40.51991 | 22.97888 | 16 ft | 17 kts | 111° |
| 2026-05-05 13:07 | 40.51961 | 22.98046 | 17 ft | 19 kts | 103° |
| 2026-05-05 13:07 | 40.51929 | 22.98221 | 17 ft | 21 kts | 104° |
| 2026-05-05 13:08 | 40.51892 | 22.98412 | 17 ft | 22 kts | 104° |
| 2026-05-05 13:08 | 40.51852 | 22.98617 | 18 ft | 24 kts | 103° |
| 2026-05-05 13:08 | 40.51794 | 22.98799 | 18 ft | 7 kts | 155° |
| 2026-05-05 13:08 | 40.51762 | 22.98801 | 19 ft | 19 kts | 189° |
| 2026-05-05 13:09 | 40.51687 | 22.98634 | 19 ft | 24 kts | 266° |
| 2026-05-05 13:09 | 40.51704 | 22.98509 | 18 ft | 2 kts | 283° |
| 2026-05-05 13:09 | 40.51748 | 22.98269 | 18 ft | 62 kts | 284° |
| 2026-05-05 13:09 | 40.51861 | 22.97669 | 15 ft | 110 kts | 284° |
| 2026-05-05 13:10 | 40.52086 | 22.96478 | 14 ft | 157 kts | 284° |
| 2026-05-05 13:10 | 40.52370 | 22.94970 | 285 ft | 172 kts | 285° |
| 2026-05-05 13:10 | 40.52692 | 22.93467 | 919 ft | 170 kts | 288° |
| 2026-05-05 13:10 | 40.53023 | 22.91985 | 1571 ft | 168 kts | 288° |
| 2026-05-05 13:11 | 40.53349 | 22.90493 | 2052 ft | 177 kts | 288° |
| 2026-05-05 13:11 | 40.53719 | 22.88842 | 2301 ft | 199 kts | 288° |
| 2026-05-05 13:11 | 40.54125 | 22.86977 | 2562 ft | 224 kts | 287° |
| 2026-05-05 13:11 | 40.54560 | 22.84919 | 2992 ft | 244 kts | 287° |
| 2026-05-05 13:12 | 40.55035 | 22.82705 | 3606 ft | 257 kts | 287° |
| 2026-05-05 13:12 | 40.55517 | 22.80412 | 4408 ft | 263 kts | 284° |
| 2026-05-05 13:12 | 40.55524 | 22.77996 | 5155 ft | 272 kts | 253° |
| 2026-05-05 13:12 | 40.54483 | 22.75923 | 5925 ft | 278 kts | 218° |
| 2026-05-05 13:13 | 40.53114 | 22.75032 | 6567 ft | 280 kts | 191° |
| 2026-05-05 13:13 | 40.51186 | 22.74953 | 7319 ft | 282 kts | 174° |
| 2026-05-05 13:13 | 40.49231 | 22.75306 | 8099 ft | 285 kts | 167° |
| 2026-05-05 13:13 | 40.47296 | 22.75924 | 8902 ft | 287 kts | 161° |
| 2026-05-05 13:14 | 40.45406 | 22.76802 | 9697 ft | 289 kts | 155° |
| 2026-05-05 13:14 | 40.43596 | 22.77967 | 10423 ft | 291 kts | 147° |
| 2026-05-05 13:14 | 40.41878 | 22.79439 | 10897 ft | 303 kts | 140° |
| 2026-05-05 13:14 | 40.40217 | 22.81299 | 11069 ft | 324 kts | 133° |
| 2026-05-05 13:15 | 40.38691 | 22.83552 | 11199 ft | 344 kts | 125° |
| 2026-05-05 13:15 | 40.37355 | 22.86227 | 11522 ft | 356 kts | 116° |
| 2026-05-05 13:15 | 40.36305 | 22.89180 | 12067 ft | 360 kts | 108° |
| 2026-05-05 13:15 | 40.35579 | 22.92327 | 12664 ft | 362 kts | 100° |
| 2026-05-05 13:16 | 40.34928 | 22.95545 | 13250 ft | 369 kts | 108° |
| 2026-05-05 13:16 | 40.33796 | 22.98598 | 13837 ft | 377 kts | 120° |
| 2026-05-05 13:16 | 40.32149 | 23.01310 | 14379 ft | 385 kts | 134° |
| 2026-05-05 13:16 | 40.30036 | 23.03497 | 14880 ft | 391 kts | 148° |
| 2026-05-05 13:17 | 40.27620 | 23.05176 | 15418 ft | 395 kts | 152° |
| 2026-05-05 13:17 | 40.25167 | 23.06821 | 15951 ft | 398 kts | 152° |
| 2026-05-05 13:17 | 40.22690 | 23.08489 | 16465 ft | 402 kts | 153° |
| 2026-05-05 13:17 | 40.20195 | 23.10177 | 17000 ft | 406 kts | 153° |
| 2026-05-05 13:18 | 40.17675 | 23.11878 | 17564 ft | 410 kts | 153° |
| 2026-05-05 13:18 | 40.15130 | 23.13594 | 18120 ft | 413 kts | 153° |
| 2026-05-05 13:18 | 40.12561 | 23.15326 | 18641 ft | 417 kts | 153° |
| 2026-05-05 13:18 | 40.09905 | 23.16880 | 19155 ft | 420 kts | 160° |
| 2026-05-05 13:19 | 40.07164 | 23.18230 | 19692 ft | 423 kts | 160° |
| 2026-05-05 13:19 | 40.04401 | 23.19585 | 20225 ft | 425 kts | 160° |
| 2026-05-05 13:19 | 40.01626 | 23.20947 | 20740 ft | 428 kts | 160° |
| 2026-05-05 13:19 | 39.98829 | 23.22323 | 21214 ft | 430 kts | 160° |
| 2026-05-05 13:20 | 39.96058 | 23.23686 | 21668 ft | 433 kts | 160° |
| 2026-05-05 13:20 | 39.93232 | 23.25079 | 22122 ft | 436 kts | 160° |
| 2026-05-05 13:20 | 39.90391 | 23.26477 | 22559 ft | 438 kts | 160° |
| 2026-05-05 13:20 | 39.87528 | 23.27883 | 22994 ft | 440 kts | 160° |
| 2026-05-05 13:21 | 39.84652 | 23.29293 | 23417 ft | 443 kts | 160° |
| 2026-05-05 13:21 | 39.81760 | 23.30710 | 23800 ft | 445 kts | 160° |
| 2026-05-05 13:21 | 39.78854 | 23.32130 | 24125 ft | 448 kts | 160° |
| 2026-05-05 13:21 | 39.75925 | 23.33558 | 24438 ft | 451 kts | 160° |
| 2026-05-05 13:22 | 39.72981 | 23.34994 | 24750 ft | 453 kts | 160° |
| 2026-05-05 13:22 | 39.70017 | 23.36443 | 25015 ft | 456 kts | 160° |
| 2026-05-05 13:22 | 39.67035 | 23.37899 | 25088 ft | 461 kts | 160° |
| 2026-05-05 13:22 | 39.64010 | 23.39374 | 25096 ft | 466 kts | 160° |
| 2026-05-05 13:23 | 39.60970 | 23.40857 | 25096 ft | 468 kts | 160° |
| 2026-05-05 13:23 | 39.57921 | 23.42344 | 25096 ft | 468 kts | 160° |
| 2026-05-05 13:23 | 39.54871 | 23.43828 | 25096 ft | 468 kts | 160° |
| 2026-05-05 13:23 | 39.51823 | 23.45308 | 25093 ft | 468 kts | 160° |
| 2026-05-05 13:24 | 39.48776 | 23.46782 | 25097 ft | 467 kts | 160° |
| 2026-05-05 13:24 | 39.45733 | 23.48254 | 25095 ft | 467 kts | 160° |
| 2026-05-05 13:24 | 39.42685 | 23.49729 | 25095 ft | 467 kts | 160° |
| 2026-05-05 13:24 | 39.39642 | 23.51201 | 25095 ft | 467 kts | 160° |
| 2026-05-05 13:25 | 39.36596 | 23.52672 | 25094 ft | 467 kts | 160° |
| 2026-05-05 13:25 | 39.33551 | 23.54141 | 25096 ft | 467 kts | 160° |
| 2026-05-05 13:25 | 39.30506 | 23.55611 | 25092 ft | 467 kts | 160° |
| 2026-05-05 13:25 | 39.27462 | 23.57079 | 25094 ft | 467 kts | 160° |
| 2026-05-05 13:26 | 39.24419 | 23.58542 | 25094 ft | 467 kts | 160° |
| 2026-05-05 13:26 | 39.21374 | 23.60003 | 25097 ft | 467 kts | 160° |
| 2026-05-05 13:26 | 39.18337 | 23.61293 | 25094 ft | 466 kts | 167° |
| 2026-05-05 13:26 | 39.15149 | 23.62033 | 25096 ft | 465 kts | 174° |
| 2026-05-05 13:27 | 39.11937 | 23.62501 | 25094 ft | 465 kts | 174° |
| 2026-05-05 13:27 | 39.08722 | 23.62973 | 25088 ft | 465 kts | 174° |
| 2026-05-05 13:27 | 39.05511 | 23.63447 | 25089 ft | 465 kts | 174° |
| 2026-05-05 13:27 | 39.02298 | 23.63925 | 25093 ft | 465 kts | 174° |
| 2026-05-05 13:28 | 38.99087 | 23.64405 | 25094 ft | 465 kts | 174° |
| 2026-05-05 13:28 | 38.95877 | 23.64884 | 25095 ft | 465 kts | 174° |
| 2026-05-05 13:28 | 38.92664 | 23.65361 | 25092 ft | 465 kts | 174° |
| 2026-05-05 13:28 | 38.89451 | 23.65839 | 25096 ft | 465 kts | 174° |
| 2026-05-05 13:29 | 38.86241 | 23.66311 | 25101 ft | 465 kts | 174° |
| 2026-05-05 13:29 | 38.83027 | 23.66778 | 25099 ft | 465 kts | 174° |
| 2026-05-05 13:29 | 38.79810 | 23.67242 | 25098 ft | 465 kts | 174° |
| 2026-05-05 13:29 | 38.76598 | 23.67708 | 25103 ft | 465 kts | 174° |
| 2026-05-05 13:30 | 38.73384 | 23.68178 | 25103 ft | 465 kts | 174° |
| 2026-05-05 13:30 | 38.70171 | 23.68652 | 25108 ft | 465 kts | 174° |
| 2026-05-05 13:30 | 38.66957 | 23.69129 | 25108 ft | 465 kts | 174° |
| 2026-05-05 13:30 | 38.63745 | 23.69605 | 25100 ft | 465 kts | 174° |
| 2026-05-05 13:31 | 38.60530 | 23.70076 | 25109 ft | 465 kts | 174° |
| 2026-05-05 13:31 | 38.57313 | 23.70544 | 25112 ft | 465 kts | 174° |
| 2026-05-05 13:31 | 38.54809 | 23.70908 | 25113 ft | 465 kts | 174° |
| 2026-05-05 13:31 | 38.51593 | 23.71374 | 25116 ft | 465 kts | 174° |
| 2026-05-05 13:32 | 38.48371 | 23.71843 | 25117 ft | 465 kts | 174° |
| 2026-05-05 13:32 | 38.45158 | 23.72310 | 25113 ft | 465 kts | 174° |
| 2026-05-05 13:32 | 38.41938 | 23.72780 | 25107 ft | 465 kts | 174° |
| 2026-05-05 13:32 | 38.39432 | 23.73147 | 25116 ft | 465 kts | 174° |
| 2026-05-05 13:33 | 38.36257 | 23.73607 | 25115 ft | 465 kts | 174° |
| 2026-05-05 13:33 | 38.33041 | 23.74070 | 25118 ft | 465 kts | 174° |
| 2026-05-05 13:33 | 38.29823 | 23.74532 | 25116 ft | 465 kts | 174° |
| 2026-05-05 13:33 | 38.26608 | 23.74993 | 25123 ft | 465 kts | 174° |
| 2026-05-05 13:34 | 38.23395 | 23.75456 | 25129 ft | 464 kts | 174° |
| 2026-05-05 13:34 | 38.20200 | 23.76040 | 25119 ft | 464 kts | 168° |
| 2026-05-05 13:34 | 38.17107 | 23.77201 | 25131 ft | 464 kts | 159° |
| 2026-05-05 13:34 | 38.14200 | 23.78962 | 25125 ft | 463 kts | 149° |
| 2026-05-05 13:35 | 38.11521 | 23.81221 | 25120 ft | 462 kts | 144° |
| 2026-05-05 13:35 | 38.08884 | 23.83560 | 25126 ft | 462 kts | 145° |
| 2026-05-05 13:35 | 38.06250 | 23.85883 | 25123 ft | 462 kts | 145° |
| 2026-05-05 13:35 | 38.03601 | 23.88206 | 25115 ft | 462 kts | 145° |
| 2026-05-05 13:36 | 38.00953 | 23.90519 | 25113 ft | 459 kts | 145° |
| 2026-05-05 13:36 | 37.98353 | 23.92785 | 24950 ft | 450 kts | 145° |
| 2026-05-05 13:36 | 37.95776 | 23.95030 | 23664 ft | 450 kts | 145° |
| 2026-05-05 13:36 | 37.93191 | 23.97283 | 22186 ft | 449 kts | 145° |
| 2026-05-05 13:37 | 37.90666 | 23.99490 | 21820 ft | 432 kts | 145° |
| 2026-05-05 13:37 | 37.88224 | 24.01628 | 21336 ft | 425 kts | 145° |
| 2026-05-05 13:37 | 37.85793 | 24.03756 | 20680 ft | 425 kts | 144° |
| 2026-05-05 13:37 | 37.83363 | 24.05882 | 20044 ft | 424 kts | 144° |
| 2026-05-05 13:38 | 37.80939 | 24.07996 | 19437 ft | 423 kts | 144° |
| 2026-05-05 13:38 | 37.78523 | 24.10099 | 18835 ft | 421 kts | 144° |
| 2026-05-05 13:38 | 37.76117 | 24.12196 | 18239 ft | 419 kts | 144° |
| 2026-05-05 13:38 | 37.73750 | 24.14253 | 17633 ft | 417 kts | 145° |
| 2026-05-05 13:39 | 37.71374 | 24.16313 | 17060 ft | 415 kts | 145° |
| 2026-05-05 13:39 | 37.69002 | 24.18368 | 16474 ft | 412 kts | 145° |
| 2026-05-05 13:39 | 37.66643 | 24.20407 | 15879 ft | 410 kts | 145° |
| 2026-05-05 13:39 | 37.64287 | 24.22441 | 15267 ft | 409 kts | 145° |
| 2026-05-05 13:40 | 37.61949 | 24.24476 | 14644 ft | 408 kts | 143° |
| 2026-05-05 13:40 | 37.59964 | 24.26984 | 14009 ft | 403 kts | 122° |
| 2026-05-05 13:40 | 37.58849 | 24.30170 | 13332 ft | 395 kts | 99° |
| 2026-05-05 13:40 | 37.58719 | 24.33539 | 12782 ft | 374 kts | 78° |
| 2026-05-05 13:41 | 37.59434 | 24.36547 | 12310 ft | 345 kts | 59° |
| 2026-05-05 13:41 | 37.60764 | 24.38949 | 11868 ft | 330 kts | 41° |
| 2026-05-05 13:41 | 37.62560 | 24.40696 | 11407 ft | 326 kts | 25° |
| 2026-05-05 13:41 | 37.64658 | 24.41667 | 11008 ft | 318 kts | 9° |
| 2026-05-05 13:42 | 37.66807 | 24.41813 | 10885 ft | 303 kts | 354° |
| 2026-05-05 13:42 | 37.68820 | 24.41247 | 10757 ft | 292 kts | 340° |
| 2026-05-05 13:42 | 37.70576 | 24.40060 | 10634 ft | 283 kts | 326° |
| 2026-05-05 13:42 | 37.71995 | 24.38395 | 10351 ft | 275 kts | 311° |
| 2026-05-05 13:43 | 37.73013 | 24.36345 | 10115 ft | 280 kts | 298° |
| 2026-05-05 13:43 | 37.73791 | 24.34086 | 9953 ft | 281 kts | 297° |
| 2026-05-05 13:43 | 37.74573 | 24.31815 | 9821 ft | 282 kts | 297° |
| 2026-05-05 13:43 | 37.75358 | 24.29542 | 9683 ft | 281 kts | 297° |
| 2026-05-05 13:44 | 37.76170 | 24.27293 | 9560 ft | 281 kts | 302° |
| 2026-05-05 13:44 | 37.77186 | 24.25254 | 9432 ft | 276 kts | 310° |
| 2026-05-05 13:44 | 37.78437 | 24.23439 | 9239 ft | 273 kts | 319° |
| 2026-05-05 13:44 | 37.79883 | 24.21897 | 8838 ft | 272 kts | 327° |
| 2026-05-05 13:45 | 37.81493 | 24.20659 | 8434 ft | 270 kts | 336° |
| 2026-05-05 13:45 | 37.83214 | 24.19744 | 8056 ft | 269 kts | 343° |
| 2026-05-05 13:45 | 37.84990 | 24.19089 | 7762 ft | 262 kts | 346° |
| 2026-05-05 13:45 | 37.86736 | 24.18447 | 7171 ft | 260 kts | 345° |
| 2026-05-05 13:46 | 37.88459 | 24.17808 | 6733 ft | 257 kts | 347° |
| 2026-05-05 13:46 | 37.90206 | 24.17455 | 6269 ft | 253 kts | 1° |
| 2026-05-05 13:46 | 37.91380 | 24.17593 | 5966 ft | 251 kts | 9° |
| 2026-05-05 13:46 | 37.93093 | 24.17987 | 5502 ft | 250 kts | 11° |
| 2026-05-05 13:47 | 37.94797 | 24.18411 | 5048 ft | 249 kts | 11° |
| 2026-05-05 13:47 | 37.96497 | 24.18832 | 4603 ft | 251 kts | 11° |
| 2026-05-05 13:47 | 37.98202 | 24.19256 | 4142 ft | 255 kts | 11° |
| 2026-05-05 13:47 | 37.99958 | 24.19701 | 3688 ft | 259 kts | 11° |
| 2026-05-05 13:48 | 38.01751 | 24.19850 | 3232 ft | 260 kts | 353° |
| 2026-05-05 13:48 | 38.03390 | 24.19124 | 3051 ft | 241 kts | 329° |
| 2026-05-05 13:48 | 38.04587 | 24.17793 | 3051 ft | 218 kts | 316° |
| 2026-05-05 13:48 | 38.05607 | 24.16409 | 3060 ft | 213 kts | 316° |
| 2026-05-05 13:49 | 38.06596 | 24.15066 | 3060 ft | 202 kts | 316° |
| 2026-05-05 13:49 | 38.07533 | 24.13792 | 3058 ft | 195 kts | 316° |
| 2026-05-05 13:49 | 38.08330 | 24.12468 | 3084 ft | 182 kts | 302° |
| 2026-05-05 13:49 | 38.08723 | 24.10997 | 3055 ft | 171 kts | 284° |
| 2026-05-05 13:50 | 38.08736 | 24.09543 | 3048 ft | 162 kts | 266° |
| 2026-05-05 13:50 | 38.08424 | 24.08175 | 3056 ft | 163 kts | 250° |
| 2026-05-05 13:50 | 38.07813 | 24.06960 | 3060 ft | 165 kts | 232° |
| 2026-05-05 13:50 | 38.06950 | 24.06000 | 3061 ft | 166 kts | 220° |
| 2026-05-05 13:51 | 38.06042 | 24.05134 | 3036 ft | 161 kts | 220° |
| 2026-05-05 13:51 | 38.05151 | 24.04282 | 2858 ft | 160 kts | 220° |
| 2026-05-05 13:51 | 38.04269 | 24.03440 | 2661 ft | 158 kts | 220° |
| 2026-05-05 13:51 | 38.03396 | 24.02606 | 2454 ft | 155 kts | 220° |
| 2026-05-05 13:52 | 38.02541 | 24.01790 | 2249 ft | 153 kts | 220° |
| 2026-05-05 13:52 | 38.01696 | 24.00983 | 2056 ft | 151 kts | 220° |
| 2026-05-05 13:52 | 38.00860 | 24.00186 | 1858 ft | 149 kts | 220° |
| 2026-05-05 13:52 | 38.00031 | 23.99395 | 1655 ft | 148 kts | 220° |
| 2026-05-05 13:53 | 37.99210 | 23.98612 | 1447 ft | 147 kts | 221° |
| 2026-05-05 13:53 | 37.98399 | 23.97839 | 1258 ft | 145 kts | 221° |
| 2026-05-05 13:53 | 37.97603 | 23.97080 | 1054 ft | 142 kts | 219° |
| 2026-05-05 13:53 | 37.96824 | 23.96338 | 850 ft | 139 kts | 219° |
| 2026-05-05 13:54 | 37.96046 | 23.95597 | 673 ft | 140 kts | 218° |
| 2026-05-05 13:54 | 37.95276 | 23.94861 | 483 ft | 141 kts | 218° |
| 2026-05-05 13:54 | 37.94491 | 23.94112 | 313 ft | 141 kts | 218° |
| 2026-05-05 13:54 | 37.93810 | 23.93463 | 282 ft | 91 kts | 217° |
| 2026-05-05 13:55 | 37.93471 | 23.93158 | 280 ft | 40 kts | 204° |
| 2026-05-05 13:55 | 37.93308 | 23.93138 | 277 ft | 12 kts | 192° |
| 2026-05-05 13:55 | 37.93254 | 23.93197 | 281 ft | 13 kts | 96° |
| 2026-05-05 13:55 | 37.93281 | 23.93240 | 278 ft | 1 kts | 38° |
| 2026-05-05 13:56 | 37.93288 | 23.93247 | 278 ft | 2 kts | 38° |
| 2026-05-05 13:56 | 37.93303 | 23.93262 | 278 ft | 3 kts | 38° |
| 2026-05-05 13:56 | 37.93326 | 23.93285 | 278 ft | 5 kts | 38° |
| 2026-05-05 13:56 | 37.93358 | 23.93315 | 283 ft | 7 kts | 37° |
| 2026-05-05 13:57 | 37.93400 | 23.93355 | 279 ft | 8 kts | 37° |
| 2026-05-05 13:57 | 37.93452 | 23.93405 | 280 ft | 11 kts | 37° |
| 2026-05-05 13:57 | 37.93517 | 23.93465 | 283 ft | 13 kts | 36° |
| 2026-05-05 13:57 | 37.93593 | 23.93536 | 281 ft | 15 kts | 36° |
| 2026-05-05 13:58 | 37.93679 | 23.93622 | 282 ft | 17 kts | 38° |
| 2026-05-05 13:58 | 37.93778 | 23.93714 | 285 ft | 19 kts | 35° |
| 2026-05-05 13:58 | 37.93889 | 23.93816 | 289 ft | 21 kts | 37° |
| 2026-05-05 13:58 | 37.94007 | 23.93929 | 290 ft | 22 kts | 37° |
| 2026-05-05 13:59 | 37.94266 | 23.94177 | 288 ft | 25 kts | 37° |
| 2026-05-05 13:59 | 37.94410 | 23.94312 | 290 ft | 26 kts | 36° |
| 2026-05-05 14:00 | 37.94718 | 23.94608 | 295 ft | 29 kts | 37° |
| 2026-05-05 14:00 | 37.94772 | 23.94659 | 296 ft | 0 kts | 37° |
| 2026-05-05 14:00 | 37.94773 | 23.94661 | 296 ft | 1 kts | 50° |
| 2026-05-05 14:00 | 37.94753 | 23.94650 | 294 ft | 10 kts | 246° |
| 2026-05-05 14:01 | 37.94677 | 23.94648 | 295 ft | 19 kts | 133° |
| 2026-05-05 14:01 | 37.94597 | 23.94773 | 291 ft | 22 kts | 126° |
| 2026-05-05 14:01 | 37.94502 | 23.94935 | 289 ft | 25 kts | 127° |
| 2026-05-05 14:01 | 37.94393 | 23.95117 | 287 ft | 25 kts | 127° |
| 2026-05-05 14:02 | 37.94281 | 23.95305 | 281 ft | 26 kts | 127° |
| 2026-05-05 14:02 | 37.94167 | 23.95497 | 280 ft | 24 kts | 127° |
| 2026-05-05 14:02 | 37.94069 | 23.95536 | 278 ft | 16 kts | 214° |
| 2026-05-05 14:02 | 37.93977 | 23.95447 | 279 ft | 18 kts | 216° |
| 2026-05-05 14:03 | 37.93909 | 23.95329 | 280 ft | 17 kts | 278° |
| 2026-05-05 14:03 | 37.93975 | 23.95213 | 280 ft | 12 kts | 321° |
| 2026-05-05 14:03 | 37.94037 | 23.95242 | 280 ft | 7 kts | 37° |
| 2026-05-05 14:03 | 37.94051 | 23.95256 | 280 ft | 0 kts | 37° |